createdAt,value
2019-05-02T00:00:49.771Z,94288.96
2019-05-02T00:03:19.069Z,94286.02
2019-05-02T00:05:47.768Z,94290.34
2019-05-02T00:08:16.549Z,94286.98
2019-05-02T00:10:46.185Z,94283.77
2019-05-02T00:13:14.786Z,94284.12
2019-05-02T00:15:43.420Z,94281.38
2019-05-02T00:18:13.031Z,94289.32
2019-05-02T00:20:41.695Z,94281.65
2019-05-02T00:23:10.405Z,94288.65
2019-05-02T00:25:39.234Z,94285.64
2019-05-02T00:28:12.236Z,94281.12
2019-05-02T00:30:38.143Z,94286.75
2019-05-02T00:33:06.992Z,94286.31
2019-05-02T00:35:35.686Z,94285.91
2019-05-02T00:38:04.354Z,94284.13
2019-05-02T00:40:32.882Z,94283.05
2019-05-02T00:43:01.405Z,94295.34
2019-05-02T00:45:30.038Z,94294.08
2019-05-02T00:48:00.172Z,94295.19
2019-05-02T00:50:30.477Z,94296.36
2019-05-02T00:52:59.117Z,94298.08
2019-05-02T00:55:28.896Z,94300.39
2019-05-02T00:57:58.030Z,94296.16
2019-05-02T01:00:26.724Z,94297.17
2019-05-02T01:02:56.998Z,94293.27
2019-05-02T01:05:25.525Z,94296.06
2019-05-02T01:07:55.926Z,94295.86
2019-05-02T01:10:24.436Z,94289.88
2019-05-02T01:12:53.100Z,94295.51
2019-05-02T01:15:21.912Z,94296.12
2019-05-02T01:17:50.491Z,94293.11
2019-05-02T01:20:22.285Z,94288.03
2019-05-02T01:22:52.327Z,94284.73
2019-05-02T01:25:19.894Z,94291.05
2019-05-02T01:28:02.259Z,94290.72
2019-05-02T01:30:42.354Z,94293.73
2019-05-02T01:33:19.070Z,94283.87
2019-05-02T01:35:49.660Z,94286.25
2019-05-02T01:38:19.931Z,94289.67
2019-05-02T01:40:53.109Z,94286.38
2019-05-02T01:43:28.402Z,94289.96
2019-05-02T01:45:57.079Z,94283.77
2019-05-02T01:48:26.298Z,94293.23
2019-05-02T01:50:55.026Z,94295.98
2019-05-02T01:53:23.699Z,94288.09
2019-05-02T01:55:57.286Z,94288.50
2019-05-02T01:58:23.019Z,94289.76
2019-05-02T02:00:51.666Z,94294.43
2019-05-02T02:03:20.226Z,94289.20
2019-05-02T02:05:49.038Z,94295.09
2019-05-02T02:08:17.701Z,94293.98
2019-05-02T02:10:50.752Z,94290.52
2019-05-02T02:13:16.730Z,94300.03
2019-05-02T02:15:45.405Z,94288.70
2019-05-02T02:18:15.335Z,94294.60
2019-05-02T02:20:57.592Z,94289.61
2019-05-02T02:23:30.832Z,94288.19
2019-05-02T02:26:12.073Z,94293.81
2019-05-02T02:28:40.276Z,94301.20
2019-05-02T02:31:08.910Z,94296.20
2019-05-02T02:33:41.246Z,94293.88
2019-05-02T02:36:07.917Z,94296.81
2019-05-02T02:38:37.759Z,94296.67
2019-05-02T02:41:12.922Z,94300.29
2019-05-02T02:43:36.622Z,94297.43
2019-05-02T02:46:13.305Z,94296.17
2019-05-02T02:48:42.795Z,94295.91
2019-05-02T02:51:22.725Z,94292.87
2019-05-02T02:53:42.062Z,94292.96
2019-05-02T02:56:10.682Z,94288.38
2019-05-02T02:58:45.480Z,94296.19
2019-05-02T03:01:09.687Z,94291.40
2019-05-02T03:03:38.321Z,94295.56
2019-05-02T03:06:08.221Z,94291.97
2019-05-02T03:08:44.995Z,94302.05
2019-05-02T03:11:08.374Z,94296.16
2019-05-02T03:13:51.142Z,94304.50
2019-05-02T03:16:10.553Z,94308.75
2019-05-02T03:18:40.759Z,94298.81
2019-05-02T03:21:13.523Z,94303.17
2019-05-02T03:23:40.030Z,94315.71
2019-05-02T03:26:15.006Z,94315.78
2019-05-02T03:28:39.725Z,94319.23
2019-05-02T03:31:23.441Z,94322.19
2019-05-02T03:33:51.508Z,94322.52
2019-05-02T03:36:25.761Z,94324.66
2019-05-02T03:38:39.500Z,94322.79
2019-05-02T03:41:13.667Z,94327.61
2019-05-02T03:43:38.455Z,94335.44
2019-05-02T03:46:07.165Z,94332.64
2019-05-02T03:48:35.786Z,94338.13
2019-05-02T03:51:05.255Z,94350.36
2019-05-02T03:53:34.744Z,94342.25
2019-05-02T03:56:10.763Z,94336.70
2019-05-02T03:58:33.795Z,94341.23
2019-05-02T04:01:03.856Z,94346.54
2019-05-02T04:03:34.309Z,94340.98
2019-05-02T04:06:03.139Z,94342.12
2019-05-02T04:08:33.049Z,94357.36
2019-05-02T04:11:16.752Z,94359.01
2019-05-02T04:13:45.378Z,94361.28
2019-05-02T04:16:15.474Z,94353.27
2019-05-02T04:18:54.596Z,94349.95
2019-05-02T04:21:15.336Z,94361.55
2019-05-02T04:23:44.761Z,94366.61
2019-05-02T04:26:15.304Z,94366.15
2019-05-02T04:28:45.551Z,94368.07
2019-05-02T04:31:14.520Z,94362.90
2019-05-02T04:33:43.194Z,94373.89
2019-05-02T04:36:17.363Z,94361.50
2019-05-02T04:38:47.713Z,94373.40
2019-05-02T04:41:21.297Z,94375.42
2019-05-02T04:43:54.566Z,94377.16
2019-05-02T04:46:22.253Z,94376.91
2019-05-02T04:48:48.673Z,94379.70
2019-05-02T04:51:16.657Z,94382.78
2019-05-02T04:53:45.407Z,94388.38
2019-05-02T04:56:14.402Z,94393.44
2019-05-02T04:58:42.894Z,94387.62
2019-05-02T05:01:11.442Z,94390.25
2019-05-02T05:03:40.114Z,94386.08
2019-05-02T05:06:12.064Z,94381.84
2019-05-02T05:08:41.614Z,94388.00
2019-05-02T05:11:09.517Z,94389.91
2019-05-02T05:13:38.146Z,94393.25
2019-05-02T05:16:08.634Z,94389.18
2019-05-02T05:18:37.832Z,94391.75
2019-05-02T05:21:10.366Z,94403.53
2019-05-02T05:24:01.141Z,94404.16
2019-05-02T05:26:28.893Z,94400.13
2019-05-02T05:28:58.369Z,94402.56
2019-05-02T05:31:29.119Z,94404.44
2019-05-02T05:33:57.874Z,94404.43
2019-05-02T05:36:32.659Z,94399.00
2019-05-02T05:38:58.216Z,94399.70
2019-05-02T05:41:27.737Z,94402.79
2019-05-02T05:43:57.352Z,94409.72
2019-05-02T05:46:28.014Z,94409.53
2019-05-02T05:48:58.356Z,94421.84
2019-05-02T05:51:27.646Z,94420.48
2019-05-02T05:54:02.614Z,94422.74
2019-05-02T05:56:27.990Z,94418.59
2019-05-02T05:58:58.906Z,94415.47
2019-05-02T06:01:34.037Z,94426.21
2019-05-02T06:03:58.008Z,94423.97
2019-05-02T06:06:27.465Z,94427.75
2019-05-02T06:08:56.256Z,94427.13
2019-05-02T06:11:24.879Z,94429.66
2019-05-02T06:13:53.585Z,94433.12
2019-05-02T06:16:22.116Z,94430.31
2019-05-02T06:18:50.687Z,94429.66
2019-05-02T06:21:19.333Z,94428.81
2019-05-02T06:23:48.000Z,94427.09
2019-05-02T06:26:16.571Z,94427.59
2019-05-02T06:28:45.130Z,94424.98
2019-05-02T06:31:16.965Z,94427.80
2019-05-02T06:33:44.326Z,94430.41
2019-05-02T06:36:13.028Z,94437.77
2019-05-02T06:38:41.636Z,94432.91
2019-05-02T06:41:10.201Z,94432.13
2019-05-02T06:43:41.128Z,94436.07
2019-05-02T06:46:15.998Z,94438.34
2019-05-02T06:48:39.527Z,94440.92
2019-05-02T06:51:10.999Z,94432.01
2019-05-02T06:53:41.477Z,94435.38
2019-05-02T06:56:12.808Z,94437.32
2019-05-02T06:58:42.106Z,94429.64
2019-05-02T07:01:09.988Z,94433.23
2019-05-02T07:03:41.322Z,94437.09
2019-05-02T07:06:08.947Z,94430.80
2019-05-02T07:08:37.627Z,94430.31
2019-05-02T07:11:06.276Z,94434.96
2019-05-02T07:13:36.208Z,94441.42
2019-05-02T07:16:37.511Z,94430.32
2019-05-02T07:19:01.189Z,94428.69
2019-05-02T07:21:29.848Z,94426.09
2019-05-02T07:23:58.339Z,94437.30
2019-05-02T07:26:27.084Z,94431.98
2019-05-02T07:28:55.674Z,94441.41
2019-05-02T07:31:24.314Z,94427.40
2019-05-02T07:33:53.032Z,94442.48
2019-05-02T07:36:21.571Z,94439.22
2019-05-02T07:38:50.207Z,94444.85
2019-05-02T07:41:18.831Z,94439.42
2019-05-02T07:43:47.491Z,94441.11
2019-05-02T07:46:20.888Z,94439.75
2019-05-02T07:48:48.866Z,94437.48
2019-05-02T07:51:20.885Z,94441.31
2019-05-02T07:53:48.491Z,94436.61
2019-05-02T07:56:18.873Z,94438.97
2019-05-02T07:58:48.167Z,94433.75
2019-05-02T08:01:16.796Z,94432.34
2019-05-02T08:03:45.423Z,94431.76
2019-05-02T08:06:14.155Z,94434.34
2019-05-02T08:08:42.795Z,94431.57
2019-05-02T08:11:11.558Z,94438.88
2019-05-02T08:13:40.166Z,94432.23
2019-05-02T08:16:08.810Z,94435.80
2019-05-02T08:18:37.438Z,94431.50
2019-05-02T08:21:06.116Z,94427.40
2019-05-02T08:23:34.637Z,94440.70
2019-05-02T08:26:03.277Z,94435.15
2019-05-02T08:28:33.574Z,94435.15
2019-05-02T08:31:02.082Z,94421.63
2019-05-02T08:33:34.600Z,94421.63
2019-05-02T08:36:00.998Z,94431.06
2019-05-02T08:38:29.639Z,94440.75
2019-05-02T08:40:58.126Z,94428.98
2019-05-02T08:43:26.729Z,94437.27
2019-05-02T08:45:55.357Z,94434.39
2019-05-02T08:48:23.989Z,94438.65
2019-05-02T08:50:52.655Z,94437.08
2019-05-02T08:53:22.294Z,94436.45
2019-05-02T08:55:51.055Z,94440.47
2019-05-02T08:58:19.616Z,94445.22
2019-05-02T09:00:48.249Z,94439.07
2019-05-02T09:03:16.876Z,94445.58
2019-05-02T09:05:46.246Z,94430.37
2019-05-02T09:08:16.691Z,94435.63
2019-05-02T09:10:46.192Z,94437.16
2019-05-02T09:13:15.874Z,94433.95
2019-05-02T09:15:49.723Z,94426.00
2019-05-02T09:18:15.482Z,94431.98
2019-05-02T09:20:46.983Z,94418.97
2019-05-02T09:23:14.501Z,94418.05
2019-05-02T09:25:43.161Z,94419.59
2019-05-02T09:28:12.489Z,94418.03
2019-05-02T09:30:41.899Z,94430.32
2019-05-02T09:33:11.710Z,94418.30
2019-05-02T09:35:42.178Z,94422.30
2019-05-02T09:38:12.917Z,94415.72
2019-05-02T09:40:42.635Z,94420.51
2019-05-02T09:43:12.188Z,94413.56
2019-05-02T09:45:43.633Z,94409.66
2019-05-02T09:48:12.536Z,94419.59
2019-05-02T09:50:42.125Z,94421.48
2019-05-02T09:53:13.060Z,94421.17
2019-05-02T09:55:42.349Z,94405.27
2019-05-02T10:00:42.557Z,94413.36
2019-05-02T10:03:12.062Z,94408.80
2019-05-02T10:05:42.858Z,94408.41
2019-05-02T10:08:13.771Z,94405.42
2019-05-02T10:10:45.813Z,94409.55
2019-05-02T10:13:12.385Z,94405.69
2019-05-02T10:15:42.103Z,94398.46
2019-05-02T10:18:14.099Z,94395.73
2019-05-02T10:20:42.036Z,94400.42
2019-05-02T10:23:12.123Z,94400.38
2019-05-02T10:25:46.454Z,94394.45
2019-05-02T10:28:12.899Z,94393.60
2019-05-02T10:30:42.660Z,94400.09
2019-05-02T10:33:12.258Z,94397.53
2019-05-02T10:35:45.365Z,94388.46
2019-05-02T10:38:19.114Z,94392.64
2019-05-02T10:40:48.350Z,94379.65
2019-05-02T10:43:15.125Z,94389.59
2019-05-02T10:45:47.506Z,94379.20
2019-05-02T10:48:25.893Z,94377.92
2019-05-02T10:50:54.091Z,94376.07
2019-05-02T10:53:22.735Z,94380.77
2019-05-02T10:55:52.385Z,94376.19
2019-05-02T10:58:26.194Z,94370.12
2019-05-02T11:00:52.323Z,94366.66
2019-05-02T11:03:32.030Z,94362.52
2019-05-02T11:06:06.198Z,94366.61
2019-05-02T11:08:36.810Z,94369.00
2019-05-02T11:11:06.101Z,94366.07
2019-05-02T11:13:38.578Z,94365.89
2019-05-02T11:16:25.246Z,94357.41
2019-05-02T11:19:07.601Z,94370.04
2019-05-02T11:21:36.195Z,94372.73
2019-05-02T11:24:05.122Z,94371.55
2019-05-02T11:26:33.748Z,94368.15
2019-05-02T11:29:03.150Z,94368.54
2019-05-02T11:31:32.496Z,94359.50
2019-05-02T11:34:01.871Z,94361.23
2019-05-02T11:36:32.604Z,94365.05
2019-05-02T11:39:11.718Z,94360.92
2019-05-02T11:41:31.862Z,94362.13
2019-05-02T11:44:00.568Z,94351.28
2019-05-02T11:46:32.823Z,94351.24
2019-05-02T11:49:02.449Z,94353.58
2019-05-02T11:51:32.604Z,94351.61
2019-05-02T11:54:05.206Z,94348.73
2019-05-02T11:56:32.944Z,94358.06
2019-05-02T11:59:02.826Z,94353.35
2019-05-02T12:01:37.219Z,94349.62
2019-05-02T12:04:03.038Z,94349.92
2019-05-02T12:06:33.187Z,94342.88
2019-05-02T12:09:02.203Z,94349.30
2019-05-02T12:11:32.398Z,94343.23
2019-05-02T12:14:01.735Z,94341.14
2019-05-02T12:16:32.339Z,94341.83
2019-05-02T12:19:09.565Z,94343.98
2019-05-02T12:21:32.503Z,94337.84
2019-05-02T12:24:02.278Z,94334.55
2019-05-02T12:26:32.452Z,94339.75
2019-05-02T12:29:02.591Z,94335.20
2019-05-02T12:31:32.715Z,94342.73
2019-05-02T12:34:03.607Z,94332.04
2019-05-02T12:36:33.303Z,94329.45
2019-05-02T12:39:02.556Z,94330.20
2019-05-02T12:41:33.076Z,94327.88
2019-05-02T12:44:02.356Z,94333.98
2019-05-02T12:46:31.829Z,94319.01
2019-05-02T12:49:02.812Z,94331.73
2019-05-02T12:51:31.980Z,94327.02
2019-05-02T12:54:02.214Z,94325.32
2019-05-02T12:56:32.406Z,94328.09
2019-05-02T12:59:02.393Z,94331.95
2019-05-02T13:01:33.051Z,94331.63
2019-05-02T13:04:03.505Z,94321.12
2019-05-02T13:06:32.769Z,94324.33
2019-05-02T13:09:03.078Z,94324.44
2019-05-02T13:11:48.656Z,94335.25
2019-05-02T13:14:19.845Z,94326.38
2019-05-02T13:16:55.537Z,94324.34
2019-05-02T13:19:19.902Z,94327.98
2019-05-02T13:22:02.460Z,94317.48
2019-05-02T13:24:32.958Z,94311.92
2019-05-02T13:27:04.029Z,94320.70
2019-05-02T13:29:32.287Z,94316.86
2019-05-02T13:32:16.902Z,94312.77
2019-05-02T13:34:48.289Z,94313.64
2019-05-02T13:37:15.704Z,94313.31
2019-05-02T13:39:54.862Z,94315.56
2019-05-02T13:42:23.766Z,94316.64
2019-05-02T13:45:06.061Z,94315.27
2019-05-02T13:47:34.791Z,94313.97
2019-05-02T13:50:04.292Z,94309.48
2019-05-02T13:52:33.350Z,94306.89
2019-05-02T13:55:02.639Z,94309.56
2019-05-02T13:57:35.004Z,94315.34
2019-05-02T14:00:02.447Z,94305.52
2019-05-02T14:02:37.171Z,94298.99
2019-05-02T14:05:14.373Z,94297.47
2019-05-02T14:07:57.103Z,94292.66
2019-05-02T14:10:26.296Z,94296.29
2019-05-02T14:13:04.499Z,94292.43
2019-05-02T14:15:35.129Z,94290.00
2019-05-02T14:18:04.148Z,94297.00
2019-05-02T14:20:33.232Z,94292.49
2019-05-02T14:23:02.412Z,94287.31
2019-05-02T14:25:32.194Z,94283.30
2019-05-02T14:28:02.935Z,94284.78
2019-05-02T14:30:39.409Z,94281.96
2019-05-02T14:33:04.357Z,94283.61
2019-05-02T14:35:36.377Z,94279.77
2019-05-02T14:38:09.680Z,94282.80
2019-05-02T14:40:45.518Z,94275.50
2019-05-02T14:43:16.303Z,94279.45
2019-05-02T14:45:45.176Z,94282.33
2019-05-02T14:48:21.564Z,94284.44
2019-05-02T14:50:47.544Z,94289.00
2019-05-02T14:53:21.190Z,94284.36
2019-05-02T14:55:48.825Z,94298.95
2019-05-02T14:58:17.918Z,94298.81
2019-05-02T15:00:48.648Z,94306.36
2019-05-02T15:03:19.082Z,94300.03
2019-05-02T15:05:48.263Z,94295.03
2019-05-02T15:08:17.169Z,94296.09
2019-05-02T15:10:52.425Z,94296.09
2019-05-02T15:13:17.802Z,94295.48
2019-05-02T15:15:46.701Z,94290.30
2019-05-02T15:18:17.497Z,94293.52
2019-05-02T15:20:46.319Z,94298.96
2019-05-02T15:23:19.619Z,94298.81
2019-05-02T15:25:47.217Z,94308.53
2019-05-02T15:28:22.975Z,94294.20
2019-05-02T15:31:08.810Z,94300.66
2019-05-02T15:33:45.597Z,94294.98
2019-05-02T15:36:17.345Z,94301.91
2019-05-02T15:38:47.501Z,94305.75
2019-05-02T15:41:18.782Z,94303.91
2019-05-02T15:43:49.329Z,94294.18
2019-05-02T15:46:23.755Z,94306.05
2019-05-02T15:48:49.071Z,94298.42
2019-05-02T15:51:19.391Z,94299.52
2019-05-02T15:54:04.474Z,94302.58
2019-05-02T15:56:23.719Z,94298.52
2019-05-02T15:58:52.165Z,94299.69
2019-05-02T16:01:25.815Z,94301.20
2019-05-02T16:04:02.313Z,94302.39
2019-05-02T16:06:33.791Z,94288.56
2019-05-02T16:09:02.453Z,94300.12
2019-05-02T16:11:32.215Z,94297.13
2019-05-02T16:14:02.214Z,94299.20
2019-05-02T16:16:32.007Z,94302.30
2019-05-02T16:19:02.234Z,94290.91
2019-05-02T16:21:32.940Z,94290.59
2019-05-02T16:24:22.560Z,94299.06
2019-05-02T16:26:52.992Z,94298.91
2019-05-02T16:29:26.761Z,94305.61
2019-05-02T16:32:09.942Z,94301.45
2019-05-02T16:34:54.721Z,94302.59
2019-05-02T16:37:23.091Z,94304.13
2019-05-02T16:39:52.185Z,94309.19
2019-05-02T16:42:22.701Z,94312.41
2019-05-02T16:44:52.319Z,94311.11
2019-05-02T16:47:22.434Z,94312.51
2019-05-02T16:49:53.129Z,94317.84
2019-05-02T16:52:22.336Z,94319.60
2019-05-02T16:54:52.647Z,94332.63
2019-05-02T16:57:22.563Z,94334.06
2019-05-02T17:00:00.720Z,94327.91
2019-05-02T17:02:23.870Z,94328.92
2019-05-02T17:04:54.644Z,94337.80
2019-05-02T17:07:25.443Z,94339.41
2019-05-02T17:10:08.584Z,94342.54
2019-05-02T17:12:35.607Z,94346.29
2019-05-02T17:15:26.354Z,94342.92
2019-05-02T17:17:55.096Z,94358.30
2019-05-02T17:20:24.094Z,94364.59
2019-05-02T17:23:02.219Z,94363.67
2019-05-02T17:25:24.020Z,94369.01
2019-05-02T17:28:01.027Z,94368.03
2019-05-02T17:30:23.948Z,94367.80
2019-05-02T17:32:52.946Z,94367.47
2019-05-02T17:35:22.228Z,94368.47
2019-05-02T17:37:52.415Z,94376.53
2019-05-02T17:40:26.084Z,94369.48
2019-05-02T17:42:57.258Z,94378.99
2019-05-02T17:45:25.492Z,94376.75
2019-05-02T17:47:54.244Z,94379.66
2019-05-02T17:50:25.281Z,94387.06
2019-05-02T17:53:01.028Z,94388.22
2019-05-02T17:55:32.851Z,94382.56
2019-05-02T17:57:59.030Z,94383.19
2019-05-02T18:00:29.307Z,94387.73
2019-05-02T18:02:57.874Z,94390.36
2019-05-02T18:05:31.282Z,94384.73
2019-05-02T18:07:56.847Z,94388.52
2019-05-02T18:10:25.498Z,94392.93
2019-05-02T18:12:58.529Z,94388.30
2019-05-02T18:15:24.521Z,94396.09
2019-05-02T18:17:53.082Z,94396.34
2019-05-02T18:20:22.025Z,94403.52
2019-05-02T18:22:51.911Z,94404.66
2019-05-02T18:25:24.165Z,94405.44
2019-05-02T18:27:51.797Z,94409.34
2019-05-02T18:30:25.439Z,94407.19
2019-05-02T18:32:52.837Z,94404.82
2019-05-02T18:35:22.079Z,94413.85
2019-05-02T18:37:51.759Z,94415.48
2019-05-02T18:40:27.703Z,94421.89
2019-05-02T18:42:52.060Z,94425.39
2019-05-02T18:45:28.467Z,94421.61
2019-05-02T18:48:02.478Z,94428.22
2019-05-02T18:50:41.354Z,94421.69
2019-05-02T18:53:09.396Z,94439.38
2019-05-02T18:55:38.637Z,94440.36
2019-05-02T18:58:08.917Z,94444.50
2019-05-02T19:00:39.568Z,94445.74
2019-05-02T19:03:13.204Z,94441.71
2019-05-02T19:05:42.076Z,94454.98
2019-05-02T19:08:12.010Z,94457.02
2019-05-02T19:14:03.976Z,94453.06
2019-05-02T19:16:32.549Z,94461.56
2019-05-02T19:19:01.703Z,94464.56
2019-05-02T19:21:32.079Z,94460.77
2019-05-02T19:24:02.345Z,94459.28
2019-05-02T19:26:32.568Z,94465.14
2019-05-02T19:29:14.342Z,94466.38
2019-05-02T19:31:46.101Z,94467.46
2019-05-02T19:34:16.691Z,94470.16
2019-05-02T19:36:44.419Z,94470.11
2019-05-02T19:39:13.041Z,94461.07
2019-05-02T19:41:44.012Z,94466.97
2019-05-02T19:44:12.005Z,94470.09
2019-05-02T19:46:42.208Z,94476.91
2019-05-02T19:49:52.288Z,94473.33
2019-05-02T19:52:17.745Z,94478.45
2019-05-02T19:54:46.246Z,94478.00
2019-05-02T19:57:17.081Z,94477.36
2019-05-02T19:59:45.264Z,94479.83
2019-05-02T20:02:13.752Z,94485.34
2019-05-02T20:04:44.021Z,94483.34
2019-05-02T20:07:12.670Z,94482.58
2019-05-02T20:09:43.721Z,94483.34
2019-05-02T20:12:15.531Z,94484.35
2019-05-02T20:14:43.591Z,94486.60
2019-05-02T20:17:20.013Z,94485.88
2019-05-02T20:19:47.305Z,94490.92
2019-05-02T20:22:16.301Z,94485.02
2019-05-02T20:25:00.372Z,94482.72
2019-05-02T20:27:28.553Z,94481.88
2019-05-02T20:29:56.814Z,94481.27
2019-05-02T20:32:25.584Z,94475.13
2019-05-02T20:34:54.206Z,94482.58
2019-05-02T20:37:22.830Z,94475.84
2019-05-02T20:39:51.607Z,94478.45
2019-05-02T20:42:20.254Z,94475.30
2019-05-02T20:44:48.910Z,94482.80
2019-05-02T20:47:21.837Z,94478.65
2019-05-02T20:49:51.882Z,94478.37
2019-05-02T20:52:21.721Z,94479.89
2019-05-02T20:54:52.210Z,94477.89
2019-05-02T20:57:20.758Z,94472.55
2019-05-02T20:59:49.420Z,94475.38
2019-05-02T21:02:18.100Z,94472.16
2019-05-02T21:04:46.802Z,94472.30
2019-05-02T21:07:16.997Z,94473.75
2019-05-02T21:09:53.467Z,94469.98
2019-05-02T21:12:22.461Z,94469.45
2019-05-02T21:14:52.331Z,94471.16
2019-05-02T21:17:22.102Z,94475.80
2019-05-02T21:19:50.746Z,94476.95
2019-05-02T21:22:22.385Z,94488.72
2019-05-02T21:24:52.870Z,94488.27
2019-05-02T21:27:21.822Z,94487.58
2019-05-02T21:29:52.252Z,94485.77
2019-05-02T21:32:22.900Z,94488.04
2019-05-02T21:34:51.994Z,94477.39
2019-05-02T21:37:22.634Z,94498.89
2019-05-02T21:39:52.067Z,94496.91
2019-05-02T21:42:22.554Z,94503.44
2019-05-02T21:44:51.829Z,94501.59
2019-05-02T21:47:22.538Z,94506.98
2019-05-02T21:49:52.964Z,94505.82
2019-05-02T21:52:23.169Z,94509.94
2019-05-02T21:54:59.320Z,94512.85
2019-05-02T21:57:27.955Z,94513.27
2019-05-02T21:59:56.582Z,94512.72
2019-05-02T22:02:25.255Z,94510.63
2019-05-02T22:04:53.806Z,94511.66
2019-05-02T22:07:22.523Z,94506.22
2019-05-02T22:09:52.388Z,94506.89
2019-05-02T22:12:22.537Z,94515.70
2019-05-02T22:14:52.782Z,94512.25
2019-05-02T22:17:21.629Z,94511.28
2019-05-02T22:19:52.277Z,94519.67
2019-05-02T22:22:20.445Z,94522.31
2019-05-02T22:24:49.121Z,94521.70
2019-05-02T22:27:17.620Z,94520.80
2019-05-02T22:29:46.102Z,94518.92
2019-05-02T22:32:14.766Z,94515.50
2019-05-02T22:34:45.286Z,94515.05
2019-05-02T22:37:15.329Z,94525.08
2019-05-02T22:39:45.578Z,94520.63
2019-05-02T22:42:14.483Z,94521.02
2019-05-02T22:44:43.109Z,94515.05
2019-05-02T22:47:14.020Z,94522.70
2019-05-02T22:49:42.429Z,94530.66
2019-05-02T22:52:12.153Z,94530.22
2019-05-02T22:54:41.684Z,94529.58
2019-05-02T22:57:11.584Z,94521.34
2019-05-02T22:59:42.263Z,94521.53
2019-05-02T23:02:12.799Z,94513.95
2019-05-02T23:04:41.818Z,94509.33
2019-05-02T23:07:12.540Z,94507.11
2019-05-02T23:09:43.453Z,94503.22
2019-05-02T23:12:13.058Z,94501.88
2019-05-02T23:14:41.919Z,94510.83
2019-05-02T23:17:12.694Z,94512.63
2019-05-02T23:19:42.327Z,94507.72
2019-05-02T23:22:12.738Z,94512.08
2019-05-02T23:24:46.143Z,94510.25
2019-05-02T23:27:22.451Z,94515.16
2019-05-02T23:29:52.000Z,94510.95
2019-05-02T23:32:23.604Z,94508.21
2019-05-02T23:34:52.299Z,94507.36
2019-05-02T23:37:21.075Z,94511.53
2019-05-02T23:39:49.741Z,94503.14
2019-05-02T23:42:18.362Z,94505.37
2019-05-02T23:44:46.991Z,94510.37
2019-05-02T23:47:15.588Z,94507.86
2019-05-02T23:49:44.066Z,94511.94
2019-05-02T23:52:12.686Z,94502.27
2019-05-02T23:54:50.125Z,94506.69
2019-05-02T23:57:12.115Z,94505.19
2019-05-02T23:59:42.397Z,94515.39
